Forside
METAR-TAF:

METAR-TAF

Lufthavne :

Kupang, Indonesien

Breddekreds: 10-10-17S, længdekreds: 123-40-16E, højde: 102 m

Aktuelle vejr

Denne rapport blev lavet for 16 minutter siden, kl. 00:30 UTC
Vind 2 kt fra nordvest
Temperatur 30°C
Fugtighed 75%
Tryk 1010 hPa
Sigt 10 km eller mere
Spredte skyer i en højde af 1600 ft

METAR: WATT 240030Z 32002KT 9999 SCT016 30/25 Q1010 NOSIG

Tid: 07:46 (00:46 UTC)

Vejrudsigter

Denne rapport blev lavet for 1 time og 46 minutter siden, kl. 23:00 UTC
Foreløbig gælder fra 24 på 00 UTC til 24 på 24 UTC
Vind 3 kt fra syd
Sigt 10 km eller mere
Nogle få skyer i en højde af 1800 ft
Sandsynlighed 40% :
Midlertidig
fra 24 på 03 UTC til 24 på 07 UTC
Vind 10 kt fra vestnordvest
Sigt: 4000 m
Nogle få skyer i en højde af 1500 ft, Cumulonimbus.
Brudte skyer i en højde af 1600 ft
tordenbyger, let regn
ændring
fra 24 på 10 UTC til 24 på 12 UTC
Vind 5 kt fra sydvest

TAF: WATT 232300Z 2400/2424 18003KT 9999 FEW018 PROB40 TEMPO 2403/2407 30010KT 4000 -TSRA FEW015CB BKN016 BECMG 2410/2412 22005KT

Vejrobservationer og prognoser fra mere end 4000 lufthavne (METAR og TAF).

De gule og røde prikker repræsenterer de meteorologiske stationer.

Flyt musen over at se navnet på stationen.

Så klik over at se vejr observationer og prognoser.

At skifte det kort: Klik på de grønne knapper med et sort kors for at zoome ind; på den grønne knap med en bindestreg for at zoome ud; eller på de grønne pile for tilstødende kort.


METAR-TAF: